sensor_id;sensor_type;location;lat;lon;timestamp;pressure;altitude;pressure_sealevel;temperature;humidity
30967;BME280;17649;51.836;8.330;2023-03-31T00:02:35;99928.44;;;10.62;nan
30967;BME280;17649;51.836;8.330;2023-03-31T00:05:36;99922.91;;;10.54;nan
30967;BME280;17649;51.836;8.330;2023-03-31T00:08:36;99929.44;;;10.47;nan
30967;BME280;17649;51.836;8.330;2023-03-31T00:11:39;99920.41;;;10.39;nan
30967;BME280;17649;51.836;8.330;2023-03-31T00:14:40;99919.41;;;10.42;nan
30967;BME280;17649;51.836;8.330;2023-03-31T00:17:41;99922.56;;;10.33;nan
30967;BME280;17649;51.836;8.330;2023-03-31T00:20:42;99923.19;;;10.36;nan
30967;BME280;17649;51.836;8.330;2023-03-31T00:23:42;99912.47;;;10.42;nan
30967;BME280;17649;51.836;8.330;2023-03-31T00:26:43;99908.13;;;10.43;nan
30967;BME280;17649;51.836;8.330;2023-03-31T00:29:43;99898.81;;;10.53;nan
30967;BME280;17649;51.836;8.330;2023-03-31T00:32:44;99892.81;;;10.53;nan
30967;BME280;17649;51.836;8.330;2023-03-31T00:35:45;99890.56;;;10.61;nan
30967;BME280;17649;51.836;8.330;2023-03-31T00:38:48;99880.94;;;10.63;nan
30967;BME280;17649;51.836;8.330;2023-03-31T00:41:48;99877.81;;;10.70;nan
30967;BME280;17649;51.836;8.330;2023-03-31T00:48:11;99860.13;;;10.64;nan
30967;BME280;17649;51.836;8.330;2023-03-31T00:51:13;99866.34;;;10.62;nan
30967;BME280;17649;51.836;8.330;2023-03-31T00:54:15;99868.19;;;10.60;nan
30967;BME280;17649;51.836;8.330;2023-03-31T00:57:18;99860.66;;;10.57;nan
30967;BME280;17649;51.836;8.330;2023-03-31T01:00:19;99861.03;;;10.51;nan
30967;BME280;17649;51.836;8.330;2023-03-31T01:03:22;99861.47;;;10.57;nan
30967;BME280;17649;51.836;8.330;2023-03-31T01:06:24;99853.28;;;10.51;nan
30967;BME280;17649;51.836;8.330;2023-03-31T01:09:24;99842.63;;;10.55;nan
30967;BME280;17649;51.836;8.330;2023-03-31T01:12:30;99830.31;;;10.46;nan
30967;BME280;17649;51.836;8.330;2023-03-31T01:15:31;99818.09;;;10.35;nan
30967;BME280;17649;51.836;8.330;2023-03-31T01:18:32;99812.72;;;10.38;nan
30967;BME280;17649;51.836;8.330;2023-03-31T01:24:48;99825.00;;;10.22;nan
30967;BME280;17649;51.836;8.330;2023-03-31T01:34:42;99809.63;;;10.33;nan
30967;BME280;17649;51.836;8.330;2023-03-31T01:41:08;99790.91;;;10.42;nan
30967;BME280;17649;51.836;8.330;2023-03-31T01:47:34;99790.16;;;10.53;nan
30967;BME280;17649;51.836;8.330;2023-03-31T01:50:54;99779.72;;;10.55;nan
30967;BME280;17649;51.836;8.330;2023-03-31T01:57:31;99768.75;;;10.51;nan
30967;BME280;17649;51.836;8.330;2023-03-31T02:00:37;99774.34;;;10.58;nan
30967;BME280;17649;51.836;8.330;2023-03-31T02:03:48;99764.94;;;10.57;nan
30967;BME280;17649;51.836;8.330;2023-03-31T02:06:54;99757.97;;;10.70;nan
30967;BME280;17649;51.836;8.330;2023-03-31T02:09:57;99765.72;;;10.70;nan
30967;BME280;17649;51.836;8.330;2023-03-31T02:12:59;99753.31;;;10.75;nan
30967;BME280;17649;51.836;8.330;2023-03-31T02:16:01;99741.09;;;10.77;nan
30967;BME280;17649;51.836;8.330;2023-03-31T02:19:03;99734.78;;;10.81;nan
30967;BME280;17649;51.836;8.330;2023-03-31T02:22:06;99735.22;;;10.75;nan
30967;BME280;17649;51.836;8.330;2023-03-31T02:25:07;99735.47;;;10.83;nan
30967;BME280;17649;51.836;8.330;2023-03-31T02:28:11;99728.75;;;10.93;nan
30967;BME280;17649;51.836;8.330;2023-03-31T02:31:26;99717.06;;;10.88;nan
30967;BME280;17649;51.836;8.330;2023-03-31T02:34:28;99707.91;;;10.95;nan
30967;BME280;17649;51.836;8.330;2023-03-31T02:37:28;99700.97;;;10.95;nan
30967;BME280;17649;51.836;8.330;2023-03-31T02:40:29;99697.56;;;10.95;nan
30967;BME280;17649;51.836;8.330;2023-03-31T02:43:30;99693.66;;;10.89;nan
30967;BME280;17649;51.836;8.330;2023-03-31T02:46:30;99688.88;;;10.96;nan
30967;BME280;17649;51.836;8.330;2023-03-31T02:49:30;99684.97;;;10.90;nan
30967;BME280;17649;51.836;8.330;2023-03-31T03:05:18;99660.81;;;10.66;nan
30967;BME280;17649;51.836;8.330;2023-03-31T03:08:27;99658.44;;;10.63;nan
30967;BME280;17649;51.836;8.330;2023-03-31T03:14:49;99661.66;;;10.54;nan
30967;BME280;17649;51.836;8.330;2023-03-31T03:17:52;99659.06;;;10.54;nan
30967;BME280;17649;51.836;8.330;2023-03-31T03:20:54;99650.38;;;10.55;nan
30967;BME280;17649;51.836;8.330;2023-03-31T03:23:55;99643.72;;;10.76;nan
30967;BME280;17649;51.836;8.330;2023-03-31T03:26:55;99615.97;;;10.78;nan
30967;BME280;17649;51.836;8.330;2023-03-31T03:29:56;99623.16;;;10.86;nan
30967;BME280;17649;51.836;8.330;2023-03-31T03:32:56;99612.66;;;10.76;nan
30967;BME280;17649;51.836;8.330;2023-03-31T03:35:58;99607.66;;;10.62;nan
30967;BME280;17649;51.836;8.330;2023-03-31T03:38:59;99592.91;;;10.75;nan
30967;BME280;17649;51.836;8.330;2023-03-31T03:42:01;99583.97;;;10.79;nan
30967;BME280;17649;51.836;8.330;2023-03-31T03:45:01;99570.09;;;10.80;nan
30967;BME280;17649;51.836;8.330;2023-03-31T03:48:01;99551.22;;;10.91;nan
30967;BME280;17649;51.836;8.330;2023-03-31T03:51:02;99536.28;;;10.94;nan
30967;BME280;17649;51.836;8.330;2023-03-31T03:54:02;99528.16;;;10.99;nan
30967;BME280;17649;51.836;8.330;2023-03-31T03:57:02;99527.91;;;10.91;nan
30967;BME280;17649;51.836;8.330;2023-03-31T04:00:02;99518.00;;;10.85;nan
30967;BME280;17649;51.836;8.330;2023-03-31T04:03:09;99510.34;;;10.83;nan
30967;BME280;17649;51.836;8.330;2023-03-31T04:06:09;99517.69;;;10.89;nan
30967;BME280;17649;51.836;8.330;2023-03-31T04:09:09;99519.41;;;10.78;nan
30967;BME280;17649;51.836;8.330;2023-03-31T04:12:09;99524.09;;;10.72;nan
30967;BME280;17649;51.836;8.330;2023-03-31T04:15:10;99510.81;;;10.77;nan
30967;BME280;17649;51.836;8.330;2023-03-31T04:18:10;99514.56;;;10.73;nan
30967;BME280;17649;51.836;8.330;2023-03-31T04:21:22;99504.09;;;10.74;nan
30967;BME280;17649;51.836;8.330;2023-03-31T04:24:23;99500.00;;;10.83;nan
30967;BME280;17649;51.836;8.330;2023-03-31T04:27:29;99485.81;;;10.89;nan
30967;BME280;17649;51.836;8.330;2023-03-31T04:30:30;99480.47;;;10.79;nan
30967;BME280;17649;51.836;8.330;2023-03-31T04:33:30;99473.88;;;10.75;nan
30967;BME280;17649;51.836;8.330;2023-03-31T04:36:33;99472.00;;;10.77;nan
30967;BME280;17649;51.836;8.330;2023-03-31T04:39:33;99448.47;;;10.80;nan
30967;BME280;17649;51.836;8.330;2023-03-31T04:42:33;99451.66;;;10.84;nan
30967;BME280;17649;51.836;8.330;2023-03-31T04:45:35;99444.72;;;10.73;nan
30967;BME280;17649;51.836;8.330;2023-03-31T04:48:35;99450.81;;;10.72;nan
30967;BME280;17649;51.836;8.330;2023-03-31T04:51:38;99444.28;;;10.55;nan
30967;BME280;17649;51.836;8.330;2023-03-31T04:54:38;99437.34;;;10.44;nan
30967;BME280;17649;51.836;8.330;2023-03-31T04:57:38;99420.22;;;10.66;nan
30967;BME280;17649;51.836;8.330;2023-03-31T05:00:39;99414.81;;;10.69;nan
30967;BME280;17649;51.836;8.330;2023-03-31T05:03:39;99416.44;;;10.59;nan
30967;BME280;17649;51.836;8.330;2023-03-31T05:06:40;99407.97;;;10.57;nan
30967;BME280;17649;51.836;8.330;2023-03-31T05:09:40;99407.97;;;10.57;nan
30967;BME280;17649;51.836;8.330;2023-03-31T05:12:40;99406.78;;;10.50;nan
30967;BME280;17649;51.836;8.330;2023-03-31T05:15:41;99401.25;;;10.54;nan
30967;BME280;17649;51.836;8.330;2023-03-31T05:18:43;99397.72;;;10.55;nan
30967;BME280;17649;51.836;8.330;2023-03-31T05:21:45;99394.81;;;10.60;nan
30967;BME280;17649;51.836;8.330;2023-03-31T05:24:45;99396.69;;;10.58;nan
30967;BME280;17649;51.836;8.330;2023-03-31T05:27:46;99386.81;;;10.63;nan
30967;BME280;17649;51.836;8.330;2023-03-31T05:30:48;99382.47;;;10.63;nan
30967;BME280;17649;51.836;8.330;2023-03-31T05:33:48;99384.31;;;10.50;nan
30967;BME280;17649;51.836;8.330;2023-03-31T05:36:50;99374.94;;;10.60;nan
30967;BME280;17649;51.836;8.330;2023-03-31T05:39:52;99372.38;;;10.71;nan
30967;BME280;17649;51.836;8.330;2023-03-31T05:42:53;99364.47;;;10.62;nan
30967;BME280;17649;51.836;8.330;2023-03-31T05:45:53;99355.19;;;10.59;nan
30967;BME280;17649;51.836;8.330;2023-03-31T05:48:53;99348.13;;;10.61;nan
30967;BME280;17649;51.836;8.330;2023-03-31T05:51:54;99349.19;;;10.59;nan
30967;BME280;17649;51.836;8.330;2023-03-31T05:54:55;99337.56;;;10.64;nan
30967;BME280;17649;51.836;8.330;2023-03-31T05:57:55;99334.63;;;10.58;nan
30967;BME280;17649;51.836;8.330;2023-03-31T06:00:59;99324.03;;;10.61;nan
30967;BME280;17649;51.836;8.330;2023-03-31T06:04:00;99317.91;;;10.62;nan
30967;BME280;17649;51.836;8.330;2023-03-31T06:07:02;99321.78;;;10.67;nan
30967;BME280;17649;51.836;8.330;2023-03-31T06:10:04;99312.03;;;10.71;nan
30967;BME280;17649;51.836;8.330;2023-03-31T06:13:07;99303.69;;;10.79;nan
30967;BME280;17649;51.836;8.330;2023-03-31T06:16:08;99299.34;;;10.90;nan
30967;BME280;17649;51.836;8.330;2023-03-31T06:19:13;99279.59;;;10.89;nan
30967;BME280;17649;51.836;8.330;2023-03-31T06:22:13;99278.41;;;10.93;nan
30967;BME280;17649;51.836;8.330;2023-03-31T06:25:13;99266.66;;;10.89;nan
30967;BME280;17649;51.836;8.330;2023-03-31T06:28:14;99267.94;;;10.95;nan
30967;BME280;17649;51.836;8.330;2023-03-31T06:31:15;99261.34;;;10.91;nan
30967;BME280;17649;51.836;8.330;2023-03-31T06:34:16;99258.53;;;10.94;nan
30967;BME280;17649;51.836;8.330;2023-03-31T06:37:17;99251.38;;;10.75;nan
30967;BME280;17649;51.836;8.330;2023-03-31T06:40:17;99253.59;;;10.80;nan
30967;BME280;17649;51.836;8.330;2023-03-31T06:43:17;99243.84;;;10.61;nan
30967;BME280;17649;51.836;8.330;2023-03-31T06:46:18;99234.56;;;10.58;nan
30967;BME280;17649;51.836;8.330;2023-03-31T06:49:19;99232.78;;;10.70;nan
30967;BME280;17649;51.836;8.330;2023-03-31T06:52:19;99221.72;;;11.01;nan
30967;BME280;17649;51.836;8.330;2023-03-31T06:55:21;99213.69;;;11.04;nan
30967;BME280;17649;51.836;8.330;2023-03-31T06:58:22;99222.56;;;11.34;nan
30967;BME280;17649;51.836;8.330;2023-03-31T07:01:22;99211.69;;;11.40;nan
30967;BME280;17649;51.836;8.330;2023-03-31T07:04:22;99208.81;;;11.54;nan
30967;BME280;17649;51.836;8.330;2023-03-31T07:07:23;99197.44;;;11.46;nan
30967;BME280;17649;51.836;8.330;2023-03-31T07:10:23;99185.09;;;11.59;nan
30967;BME280;17649;51.836;8.330;2023-03-31T07:13:24;99182.59;;;11.69;nan
30967;BME280;17649;51.836;8.330;2023-03-31T07:16:24;99181.38;;;11.84;nan
30967;BME280;17649;51.836;8.330;2023-03-31T07:19:25;99175.97;;;11.76;nan
30967;BME280;17649;51.836;8.330;2023-03-31T07:22:25;99166.00;;;11.92;nan
30967;BME280;17649;51.836;8.330;2023-03-31T07:25:25;99171.00;;;11.84;nan
30967;BME280;17649;51.836;8.330;2023-03-31T07:28:25;99166.63;;;11.63;nan
30967;BME280;17649;51.836;8.330;2023-03-31T07:31:26;99157.91;;;11.64;nan
30967;BME280;17649;51.836;8.330;2023-03-31T07:34:26;99166.34;;;11.67;nan
30967;BME280;17649;51.836;8.330;2023-03-31T07:37:26;99156.00;;;11.67;nan
30967;BME280;17649;51.836;8.330;2023-03-31T07:40:28;99151.25;;;11.72;nan
30967;BME280;17649;51.836;8.330;2023-03-31T07:43:28;99153.41;;;11.67;nan
30967;BME280;17649;51.836;8.330;2023-03-31T07:46:28;99156.19;;;11.54;nan
30967;BME280;17649;51.836;8.330;2023-03-31T07:49:29;99155.88;;;11.47;nan
30967;BME280;17649;51.836;8.330;2023-03-31T07:52:30;99151.28;;;11.19;nan
30967;BME280;17649;51.836;8.330;2023-03-31T07:55:30;99157.19;;;11.10;nan
30967;BME280;17649;51.836;8.330;2023-03-31T07:58:32;99145.91;;;10.99;nan
30967;BME280;17649;51.836;8.330;2023-03-31T08:01:32;99150.50;;;11.07;nan
30967;BME280;17649;51.836;8.330;2023-03-31T08:04:33;99143.44;;;11.09;nan
30967;BME280;17649;51.836;8.330;2023-03-31T08:07:34;99150.88;;;11.02;nan
30967;BME280;17649;51.836;8.330;2023-03-31T08:10:36;99146.84;;;11.10;nan
30967;BME280;17649;51.836;8.330;2023-03-31T08:13:36;99138.63;;;11.04;nan
30967;BME280;17649;51.836;8.330;2023-03-31T08:16:36;99143.66;;;11.17;nan
30967;BME280;17649;51.836;8.330;2023-03-31T08:19:37;99147.50;;;10.91;nan
30967;BME280;17649;51.836;8.330;2023-03-31T08:22:38;99146.09;;;10.87;nan
30967;BME280;17649;51.836;8.330;2023-03-31T08:25:39;99146.25;;;10.74;nan
30967;BME280;17649;51.836;8.330;2023-03-31T08:28:39;99133.06;;;10.66;nan
30967;BME280;17649;51.836;8.330;2023-03-31T08:31:39;99135.22;;;10.61;nan
30967;BME280;17649;51.836;8.330;2023-03-31T08:34:40;99135.47;;;10.58;nan
30967;BME280;17649;51.836;8.330;2023-03-31T08:37:41;99154.28;;;10.37;nan
30967;BME280;17649;51.836;8.330;2023-03-31T08:40:41;99152.97;;;10.21;nan
30967;BME280;17649;51.836;8.330;2023-03-31T08:43:43;99152.03;;;10.22;nan
30967;BME280;17649;51.836;8.330;2023-03-31T08:46:45;99141.66;;;10.10;nan
30967;BME280;17649;51.836;8.330;2023-03-31T08:49:50;99149.53;;;10.09;nan
30967;BME280;17649;51.836;8.330;2023-03-31T08:52:58;99152.41;;;10.28;nan
30967;BME280;17649;51.836;8.330;2023-03-31T08:56:03;99141.09;;;10.40;nan
30967;BME280;17649;51.836;8.330;2023-03-31T08:59:06;99137.00;;;10.49;nan
30967;BME280;17649;51.836;8.330;2023-03-31T09:02:31;99137.69;;;10.51;nan
30967;BME280;17649;51.836;8.330;2023-03-31T09:08:40;99134.66;;;10.46;nan
30967;BME280;17649;51.836;8.330;2023-03-31T09:11:46;99143.44;;;10.66;nan
30967;BME280;17649;51.836;8.330;2023-03-31T09:14:51;99135.03;;;10.41;nan
30967;BME280;17649;51.836;8.330;2023-03-31T09:17:59;99133.81;;;10.57;nan
30967;BME280;17649;51.836;8.330;2023-03-31T09:21:09;99129.00;;;10.41;nan
30967;BME280;17649;51.836;8.330;2023-03-31T09:24:17;99124.88;;;10.50;nan
30967;BME280;17649;51.836;8.330;2023-03-31T09:27:20;99131.44;;;10.65;nan
30967;BME280;17649;51.836;8.330;2023-03-31T09:30:27;99120.88;;;10.57;nan
30967;BME280;17649;51.836;8.330;2023-03-31T09:33:29;99125.53;;;10.74;nan
30967;BME280;17649;51.836;8.330;2023-03-31T09:36:33;99129.00;;;10.95;nan
30967;BME280;17649;51.836;8.330;2023-03-31T09:39:37;99130.09;;;11.14;nan
30967;BME280;17649;51.836;8.330;2023-03-31T09:42:38;99115.88;;;11.19;nan
30967;BME280;17649;51.836;8.330;2023-03-31T09:45:38;99114.97;;;11.30;nan
30967;BME280;17649;51.836;8.330;2023-03-31T09:48:38;99098.59;;;11.29;nan
30967;BME280;17649;51.836;8.330;2023-03-31T09:51:40;99098.38;;;11.32;nan
30967;BME280;17649;51.836;8.330;2023-03-31T09:55:01;99087.25;;;11.42;nan
30967;BME280;17649;51.836;8.330;2023-03-31T09:58:04;99084.28;;;11.67;nan
30967;BME280;17649;51.836;8.330;2023-03-31T10:01:05;99081.75;;;11.77;nan
30967;BME280;17649;51.836;8.330;2023-03-31T10:04:08;99067.72;;;11.79;nan
30967;BME280;17649;51.836;8.330;2023-03-31T10:07:10;99063.75;;;12.15;nan
30967;BME280;17649;51.836;8.330;2023-03-31T10:10:15;99061.44;;;12.12;nan
30967;BME280;17649;51.836;8.330;2023-03-31T10:13:24;99048.50;;;12.22;nan
30967;BME280;17649;51.836;8.330;2023-03-31T10:16:42;99047.38;;;12.05;nan
30967;BME280;17649;51.836;8.330;2023-03-31T10:19:49;99039.81;;;11.92;nan
30967;BME280;17649;51.836;8.330;2023-03-31T10:22:51;99044.97;;;11.83;nan
30967;BME280;17649;51.836;8.330;2023-03-31T10:25:52;99039.69;;;11.94;nan
30967;BME280;17649;51.836;8.330;2023-03-31T10:28:52;99038.72;;;12.35;nan
30967;BME280;17649;51.836;8.330;2023-03-31T10:31:55;99025.69;;;12.06;nan
30967;BME280;17649;51.836;8.330;2023-03-31T10:35:05;99025.84;;;12.24;nan
30967;BME280;17649;51.836;8.330;2023-03-31T10:38:11;99020.44;;;12.37;nan
30967;BME280;17649;51.836;8.330;2023-03-31T10:41:16;99013.75;;;12.82;nan
30967;BME280;17649;51.836;8.330;2023-03-31T10:44:34;99009.47;;;13.39;nan
30967;BME280;17649;51.836;8.330;2023-03-31T10:47:35;99012.03;;;13.86;nan
30967;BME280;17649;51.836;8.330;2023-03-31T10:50:38;99002.09;;;13.99;nan
30967;BME280;17649;51.836;8.330;2023-03-31T10:53:48;98996.91;;;13.99;nan
30967;BME280;17649;51.836;8.330;2023-03-31T10:56:56;98990.16;;;14.52;nan
30967;BME280;17649;51.836;8.330;2023-03-31T11:00:10;98987.31;;;14.63;nan
30967;BME280;17649;51.836;8.330;2023-03-31T11:03:32;98981.94;;;14.29;nan
30967;BME280;17649;51.836;8.330;2023-03-31T11:19:44;98949.66;;;13.49;nan
30967;BME280;17649;51.836;8.330;2023-03-31T11:25:54;98964.53;;;13.20;nan
30967;BME280;17649;51.836;8.330;2023-03-31T11:29:11;98960.56;;;13.06;nan
30967;BME280;17649;51.836;8.330;2023-03-31T11:41:48;98955.94;;;13.09;nan
30967;BME280;17649;51.836;8.330;2023-03-31T11:44:51;98948.41;;;13.06;nan
30967;BME280;17649;51.836;8.330;2023-03-31T11:47:54;98951.50;;;13.29;nan
30967;BME280;17649;51.836;8.330;2023-03-31T11:50:57;98953.03;;;13.22;nan
30967;BME280;17649;51.836;8.330;2023-03-31T11:53:58;98951.81;;;13.07;nan
30967;BME280;17649;51.836;8.330;2023-03-31T11:57:02;98956.09;;;12.89;nan
30967;BME280;17649;51.836;8.330;2023-03-31T12:06:19;98931.31;;;13.04;nan
30967;BME280;17649;51.836;8.330;2023-03-31T12:12:23;98914.69;;;13.43;nan
30967;BME280;17649;51.836;8.330;2023-03-31T12:15:30;98908.59;;;13.53;nan
30967;BME280;17649;51.836;8.330;2023-03-31T12:18:33;98905.38;;;14.14;nan
30967;BME280;17649;51.836;8.330;2023-03-31T12:21:37;98903.94;;;14.37;nan
30967;BME280;17649;51.836;8.330;2023-03-31T12:24:40;98904.09;;;14.97;nan
30967;BME280;17649;51.836;8.330;2023-03-31T12:27:41;98904.44;;;15.62;nan
30967;BME280;17649;51.836;8.330;2023-03-31T12:30:41;98896.41;;;15.21;nan
30967;BME280;17649;51.836;8.330;2023-03-31T12:33:43;98903.28;;;14.35;nan
30967;BME280;17649;51.836;8.330;2023-03-31T12:40:28;98899.56;;;14.20;nan
30967;BME280;17649;51.836;8.330;2023-03-31T12:49:49;98929.84;;;13.01;nan
30967;BME280;17649;51.836;8.330;2023-03-31T12:52:56;98947.94;;;12.26;nan
30967;BME280;17649;51.836;8.330;2023-03-31T12:56:00;98958.28;;;11.66;nan
30967;BME280;17649;51.836;8.330;2023-03-31T12:59:16;98952.53;;;11.01;nan
30967;BME280;17649;51.836;8.330;2023-03-31T13:02:19;98963.06;;;10.89;nan
30967;BME280;17649;51.836;8.330;2023-03-31T13:05:42;98965.66;;;11.10;nan
30967;BME280;17649;51.836;8.330;2023-03-31T13:08:50;98966.53;;;10.78;nan
30967;BME280;17649;51.836;8.330;2023-03-31T13:11:50;98971.56;;;10.59;nan
30967;BME280;17649;51.836;8.330;2023-03-31T13:14:51;98964.81;;;10.67;nan
30967;BME280;17649;51.836;8.330;2023-03-31T13:17:55;98964.03;;;10.56;nan
30967;BME280;17649;51.836;8.330;2023-03-31T13:23:59;98964.16;;;10.54;nan
30967;BME280;17649;51.836;8.330;2023-03-31T13:27:27;98963.69;;;10.60;nan
30967;BME280;17649;51.836;8.330;2023-03-31T13:31:04;98958.56;;;10.70;nan
30967;BME280;17649;51.836;8.330;2023-03-31T13:33:56;98957.31;;;10.85;nan
30967;BME280;17649;51.836;8.330;2023-03-31T13:43:27;98950.44;;;11.16;nan
30967;BME280;17649;51.836;8.330;2023-03-31T13:50:38;98949.91;;;11.83;nan
30967;BME280;17649;51.836;8.330;2023-03-31T13:53:18;98942.13;;;11.83;nan
30967;BME280;17649;51.836;8.330;2023-03-31T14:12:36;98947.22;;;11.74;nan
30967;BME280;17649;51.836;8.330;2023-03-31T14:15:37;98939.59;;;12.12;nan
30967;BME280;17649;51.836;8.330;2023-03-31T14:18:40;98933.44;;;12.13;nan
30967;BME280;17649;51.836;8.330;2023-03-31T14:21:46;98933.59;;;12.31;nan
30967;BME280;17649;51.836;8.330;2023-03-31T14:31:17;98914.75;;;12.48;nan
30967;BME280;17649;51.836;8.330;2023-03-31T14:37:24;98901.66;;;12.50;nan
30967;BME280;17649;51.836;8.330;2023-03-31T14:40:26;98908.34;;;12.43;nan
30967;BME280;17649;51.836;8.330;2023-03-31T14:43:28;98911.97;;;12.79;nan
30967;BME280;17649;51.836;8.330;2023-03-31T14:46:35;98910.50;;;12.67;nan
30967;BME280;17649;51.836;8.330;2023-03-31T14:49:36;98902.53;;;12.88;nan
30967;BME280;17649;51.836;8.330;2023-03-31T14:52:37;98908.16;;;12.83;nan
30967;BME280;17649;51.836;8.330;2023-03-31T14:55:37;98898.69;;;12.92;nan
30967;BME280;17649;51.836;8.330;2023-03-31T14:58:39;98882.16;;;12.93;nan
30967;BME280;17649;51.836;8.330;2023-03-31T15:01:42;98884.88;;;13.01;nan
30967;BME280;17649;51.836;8.330;2023-03-31T15:04:46;98873.31;;;13.32;nan
30967;BME280;17649;51.836;8.330;2023-03-31T15:07:48;98878.00;;;13.74;nan
30967;BME280;17649;51.836;8.330;2023-03-31T15:10:49;98869.41;;;13.91;nan
30967;BME280;17649;51.836;8.330;2023-03-31T15:13:51;98867.97;;;13.79;nan
30967;BME280;17649;51.836;8.330;2023-03-31T15:16:51;98866.78;;;13.73;nan
30967;BME280;17649;51.836;8.330;2023-03-31T15:19:55;98859.84;;;13.64;nan
30967;BME280;17649;51.836;8.330;2023-03-31T15:22:56;98862.09;;;13.77;nan
30967;BME280;17649;51.836;8.330;2023-03-31T15:25:58;98859.44;;;13.87;nan
30967;BME280;17649;51.836;8.330;2023-03-31T15:29:02;98861.00;;;13.52;nan
30967;BME280;17649;51.836;8.330;2023-03-31T15:32:06;98850.44;;;13.63;nan
30967;BME280;17649;51.836;8.330;2023-03-31T15:35:21;98853.78;;;13.56;nan
30967;BME280;17649;51.836;8.330;2023-03-31T15:38:22;98851.09;;;13.83;nan
30967;BME280;17649;51.836;8.330;2023-03-31T15:41:28;98844.06;;;13.76;nan
30967;BME280;17649;51.836;8.330;2023-03-31T15:44:38;98830.81;;;14.22;nan
30967;BME280;17649;51.836;8.330;2023-03-31T15:47:49;98834.63;;;14.10;nan
30967;BME280;17649;51.836;8.330;2023-03-31T15:50:51;98825.13;;;14.01;nan
30967;BME280;17649;51.836;8.330;2023-03-31T15:53:53;98824.16;;;14.02;nan
30967;BME280;17649;51.836;8.330;2023-03-31T15:56:55;98818.66;;;14.05;nan
30967;BME280;17649;51.836;8.330;2023-03-31T15:59:55;98812.03;;;14.11;nan
30967;BME280;17649;51.836;8.330;2023-03-31T16:02:56;98812.03;;;14.11;nan
30967;BME280;17649;51.836;8.330;2023-03-31T16:05:58;98806.56;;;14.14;nan
30967;BME280;17649;51.836;8.330;2023-03-31T16:09:04;98810.41;;;14.10;nan
30967;BME280;17649;51.836;8.330;2023-03-31T16:12:09;98807.41;;;14.22;nan
30967;BME280;17649;51.836;8.330;2023-03-31T16:15:12;98800.66;;;14.12;nan
30967;BME280;17649;51.836;8.330;2023-03-31T16:18:14;98794.88;;;14.18;nan
30967;BME280;17649;51.836;8.330;2023-03-31T16:21:24;98787.34;;;14.32;nan
30967;BME280;17649;51.836;8.330;2023-03-31T16:24:31;98798.06;;;14.12;nan
30967;BME280;17649;51.836;8.330;2023-03-31T16:27:36;98789.28;;;14.13;nan
30967;BME280;17649;51.836;8.330;2023-03-31T16:30:39;98786.81;;;13.85;nan
30967;BME280;17649;51.836;8.330;2023-03-31T16:33:52;98800.53;;;13.78;nan
30967;BME280;17649;51.836;8.330;2023-03-31T16:36:53;98781.75;;;13.66;nan
30967;BME280;17649;51.836;8.330;2023-03-31T16:39:55;98784.25;;;13.12;nan
30967;BME280;17649;51.836;8.330;2023-03-31T16:46:07;98811.91;;;12.94;nan
30967;BME280;17649;51.836;8.330;2023-03-31T16:49:08;98828.84;;;12.61;nan
30967;BME280;17649;51.836;8.330;2023-03-31T16:52:08;98861.53;;;12.06;nan
30967;BME280;17649;51.836;8.330;2023-03-31T16:55:08;98876.84;;;11.59;nan
30967;BME280;17649;51.836;8.330;2023-03-31T16:58:08;98882.66;;;11.32;nan
30967;BME280;17649;51.836;8.330;2023-03-31T17:01:09;98855.81;;;11.33;nan
30967;BME280;17649;51.836;8.330;2023-03-31T17:04:09;98860.72;;;11.36;nan
30967;BME280;17649;51.836;8.330;2023-03-31T17:07:10;98869.97;;;11.39;nan
30967;BME280;17649;51.836;8.330;2023-03-31T17:10:10;98871.34;;;11.43;nan
30967;BME280;17649;51.836;8.330;2023-03-31T17:13:11;98861.66;;;11.35;nan
30967;BME280;17649;51.836;8.330;2023-03-31T17:16:12;98877.34;;;11.33;nan
30967;BME280;17649;51.836;8.330;2023-03-31T17:19:12;98859.16;;;11.24;nan
30967;BME280;17649;51.836;8.330;2023-03-31T17:22:12;98860.66;;;11.26;nan
30967;BME280;17649;51.836;8.330;2023-03-31T17:25:12;98858.94;;;11.37;nan
30967;BME280;17649;51.836;8.330;2023-03-31T17:28:13;98855.56;;;11.46;nan
30967;BME280;17649;51.836;8.330;2023-03-31T17:31:14;98857.78;;;11.20;nan
30967;BME280;17649;51.836;8.330;2023-03-31T17:34:15;98861.94;;;11.32;nan
30967;BME280;17649;51.836;8.330;2023-03-31T17:37:16;98855.13;;;11.31;nan
30967;BME280;17649;51.836;8.330;2023-03-31T17:40:17;98862.44;;;11.26;nan
30967;BME280;17649;51.836;8.330;2023-03-31T17:43:18;98855.34;;;11.18;nan
30967;BME280;17649;51.836;8.330;2023-03-31T17:46:18;98859.66;;;11.08;nan
30967;BME280;17649;51.836;8.330;2023-03-31T17:49:18;98856.59;;;10.93;nan
30967;BME280;17649;51.836;8.330;2023-03-31T17:52:19;98865.84;;;10.96;nan
30967;BME280;17649;51.836;8.330;2023-03-31T17:55:24;98861.75;;;10.93;nan
30967;BME280;17649;51.836;8.330;2023-03-31T17:58:26;98863.13;;;10.88;nan
30967;BME280;17649;51.836;8.330;2023-03-31T18:01:26;98857.22;;;10.86;nan
30967;BME280;17649;51.836;8.330;2023-03-31T18:04:26;98863.06;;;10.78;nan
30967;BME280;17649;51.836;8.330;2023-03-31T18:07:27;98868.66;;;10.83;nan
30967;BME280;17649;51.836;8.330;2023-03-31T18:10:27;98864.56;;;10.81;nan
30967;BME280;17649;51.836;8.330;2023-03-31T18:13:28;98873.91;;;10.72;nan
30967;BME280;17649;51.836;8.330;2023-03-31T18:16:29;98873.53;;;10.77;nan
30967;BME280;17649;51.836;8.330;2023-03-31T18:19:30;98872.88;;;10.84;nan
30967;BME280;17649;51.836;8.330;2023-03-31T18:22:30;98863.88;;;10.79;nan
30967;BME280;17649;51.836;8.330;2023-03-31T18:25:31;98867.56;;;10.86;nan
30967;BME280;17649;51.836;8.330;2023-03-31T18:28:31;98864.63;;;10.90;nan
30967;BME280;17649;51.836;8.330;2023-03-31T18:31:32;98867.63;;;10.95;nan
30967;BME280;17649;51.836;8.330;2023-03-31T18:34:32;98867.00;;;10.82;nan
30967;BME280;17649;51.836;8.330;2023-03-31T18:37:36;98867.47;;;10.87;nan
30967;BME280;17649;51.836;8.330;2023-03-31T18:40:36;98869.13;;;10.98;nan
30967;BME280;17649;51.836;8.330;2023-03-31T18:43:36;98870.44;;;11.13;nan
30967;BME280;17649;51.836;8.330;2023-03-31T18:46:37;98865.81;;;11.17;nan